sensor_id;sensor_type;location;lat;lon;timestamp;temperature;humidity
22629;DHT22;11481;53.694;9.910;2023-06-14T00:01:15;18.20;99.90
22629;DHT22;11481;53.694;9.910;2023-06-14T00:03:42;18.10;99.90
22629;DHT22;11481;53.694;9.910;2023-06-14T00:06:10;18.10;99.90
22629;DHT22;11481;53.694;9.910;2023-06-14T00:08:37;18.20;99.90
22629;DHT22;11481;53.694;9.910;2023-06-14T00:11:04;18.20;99.90
22629;DHT22;11481;53.694;9.910;2023-06-14T00:13:31;18.30;99.90
22629;DHT22;11481;53.694;9.910;2023-06-14T00:15:57;18.50;99.90
22629;DHT22;11481;53.694;9.910;2023-06-14T00:18:24;18.20;99.90
22629;DHT22;11481;53.694;9.910;2023-06-14T00:20:53;18.30;99.90
22629;DHT22;11481;53.694;9.910;2023-06-14T00:23:20;18.30;99.90
22629;DHT22;11481;53.694;9.910;2023-06-14T00:25:47;18.10;99.90
22629;DHT22;11481;53.694;9.910;2023-06-14T00:28:14;18.00;99.90
22629;DHT22;11481;53.694;9.910;2023-06-14T00:30:41;18.00;99.90
22629;DHT22;11481;53.694;9.910;2023-06-14T00:33:10;18.10;99.90
22629;DHT22;11481;53.694;9.910;2023-06-14T00:35:37;18.30;99.90
22629;DHT22;11481;53.694;9.910;2023-06-14T00:38:04;18.40;99.90
22629;DHT22;11481;53.694;9.910;2023-06-14T00:40:31;18.20;99.90
22629;DHT22;11481;53.694;9.910;2023-06-14T00:42:58;18.10;99.90
22629;DHT22;11481;53.694;9.910;2023-06-14T00:45:24;18.10;99.90
22629;DHT22;11481;53.694;9.910;2023-06-14T00:47:52;18.00;99.90
22629;DHT22;11481;53.694;9.910;2023-06-14T00:50:22;17.90;99.90
22629;DHT22;11481;53.694;9.910;2023-06-14T00:52:50;17.70;99.90
22629;DHT22;11481;53.694;9.910;2023-06-14T00:55:17;17.80;99.90
22629;DHT22;11481;53.694;9.910;2023-06-14T00:57:44;17.80;99.90
22629;DHT22;11481;53.694;9.910;2023-06-14T01:00:12;18.00;99.90
22629;DHT22;11481;53.694;9.910;2023-06-14T01:02:39;17.80;99.90
22629;DHT22;11481;53.694;9.910;2023-06-14T01:05:07;17.90;99.90
22629;DHT22;11481;53.694;9.910;2023-06-14T01:15:43;18.00;99.90
22629;DHT22;11481;53.694;9.910;2023-06-14T01:18:10;18.00;99.90
22629;DHT22;11481;53.694;9.910;2023-06-14T01:20:46;17.90;99.90
22629;DHT22;11481;53.694;9.910;2023-06-14T01:23:17;17.70;99.90
22629;DHT22;11481;53.694;9.910;2023-06-14T01:25:45;17.70;99.90
22629;DHT22;11481;53.694;9.910;2023-06-14T01:28:12;17.50;99.90
22629;DHT22;11481;53.694;9.910;2023-06-14T01:30:42;17.30;99.90
22629;DHT22;11481;53.694;9.910;2023-06-14T01:33:17;17.30;99.90
22629;DHT22;11481;53.694;9.910;2023-06-14T01:35:50;17.30;99.90
22629;DHT22;11481;53.694;9.910;2023-06-14T01:38:19;17.20;99.90
22629;DHT22;11481;53.694;9.910;2023-06-14T01:40:47;17.20;99.90
22629;DHT22;11481;53.694;9.910;2023-06-14T01:43:16;17.10;99.90
22629;DHT22;11481;53.694;9.910;2023-06-14T01:45:43;17.10;99.90
22629;DHT22;11481;53.694;9.910;2023-06-14T01:48:11;16.90;99.90
22629;DHT22;11481;53.694;9.910;2023-06-14T01:50:38;17.10;99.90
22629;DHT22;11481;53.694;9.910;2023-06-14T01:53:09;17.00;99.90
22629;DHT22;11481;53.694;9.910;2023-06-14T01:55:37;16.90;99.90
22629;DHT22;11481;53.694;9.910;2023-06-14T01:58:04;16.90;99.90
22629;DHT22;11481;53.694;9.910;2023-06-14T02:00:32;17.20;99.90
22629;DHT22;11481;53.694;9.910;2023-06-14T02:02:58;16.90;99.90
22629;DHT22;11481;53.694;9.910;2023-06-14T02:05:26;16.90;99.90
22629;DHT22;11481;53.694;9.910;2023-06-14T02:07:53;16.80;99.90
22629;DHT22;11481;53.694;9.910;2023-06-14T02:10:21;16.70;99.90
22629;DHT22;11481;53.694;9.910;2023-06-14T02:12:48;16.70;99.90
22629;DHT22;11481;53.694;9.910;2023-06-14T02:15:15;16.60;99.90
22629;DHT22;11481;53.694;9.910;2023-06-14T02:17:47;16.70;99.90
22629;DHT22;11481;53.694;9.910;2023-06-14T02:20:16;16.80;99.90
22629;DHT22;11481;53.694;9.910;2023-06-14T02:22:44;17.20;99.90
22629;DHT22;11481;53.694;9.910;2023-06-14T02:25:12;16.70;99.90
22629;DHT22;11481;53.694;9.910;2023-06-14T02:27:38;16.70;99.90
22629;DHT22;11481;53.694;9.910;2023-06-14T02:30:05;16.70;99.90
22629;DHT22;11481;53.694;9.910;2023-06-14T02:32:33;16.70;99.90
22629;DHT22;11481;53.694;9.910;2023-06-14T02:35:03;16.70;99.90
22629;DHT22;11481;53.694;9.910;2023-06-14T02:37:30;16.60;99.90
22629;DHT22;11481;53.694;9.910;2023-06-14T02:39:57;16.60;99.90
22629;DHT22;11481;53.694;9.910;2023-06-14T02:42:24;16.60;99.90
22629;DHT22;11481;53.694;9.910;2023-06-14T02:44:51;16.60;99.90
22629;DHT22;11481;53.694;9.910;2023-06-14T02:47:18;16.70;99.90
22629;DHT22;11481;53.694;9.910;2023-06-14T02:49:45;16.60;99.90
22629;DHT22;11481;53.694;9.910;2023-06-14T02:52:15;16.70;99.90
22629;DHT22;11481;53.694;9.910;2023-06-14T02:54:42;16.60;99.90
22629;DHT22;11481;53.694;9.910;2023-06-14T02:57:09;16.70;99.90
22629;DHT22;11481;53.694;9.910;2023-06-14T02:59:37;16.70;99.90
22629;DHT22;11481;53.694;9.910;2023-06-14T03:02:04;16.70;99.90
22629;DHT22;11481;53.694;9.910;2023-06-14T03:04:31;16.80;99.90
22629;DHT22;11481;53.694;9.910;2023-06-14T03:07:04;16.70;99.90
22629;DHT22;11481;53.694;9.910;2023-06-14T03:09:36;16.60;99.90
22629;DHT22;11481;53.694;9.910;2023-06-14T03:12:04;16.50;99.90
22629;DHT22;11481;53.694;9.910;2023-06-14T03:14:32;16.50;99.90
22629;DHT22;11481;53.694;9.910;2023-06-14T03:16:59;16.60;99.90
22629;DHT22;11481;53.694;9.910;2023-06-14T03:19:27;16.60;99.90
22629;DHT22;11481;53.694;9.910;2023-06-14T03:21:53;16.60;99.90
22629;DHT22;11481;53.694;9.910;2023-06-14T03:24:26;16.60;99.90
22629;DHT22;11481;53.694;9.910;2023-06-14T03:26:56;16.50;99.90
22629;DHT22;11481;53.694;9.910;2023-06-14T03:29:23;16.50;99.90
22629;DHT22;11481;53.694;9.910;2023-06-14T03:32:01;16.40;99.90
22629;DHT22;11481;53.694;9.910;2023-06-14T03:34:29;16.40;99.90
22629;DHT22;11481;53.694;9.910;2023-06-14T03:36:57;16.30;99.90
22629;DHT22;11481;53.694;9.910;2023-06-14T03:39:23;16.40;99.90
22629;DHT22;11481;53.694;9.910;2023-06-14T03:41:50;16.40;99.90
22629;DHT22;11481;53.694;9.910;2023-06-14T03:44:18;16.40;99.90
22629;DHT22;11481;53.694;9.910;2023-06-14T03:46:45;16.40;99.90
22629;DHT22;11481;53.694;9.910;2023-06-14T03:49:13;16.50;99.90
22629;DHT22;11481;53.694;9.910;2023-06-14T03:51:40;16.50;99.90
22629;DHT22;11481;53.694;9.910;2023-06-14T03:54:07;16.50;99.90
22629;DHT22;11481;53.694;9.910;2023-06-14T03:56:37;16.50;99.90
22629;DHT22;11481;53.694;9.910;2023-06-14T03:59:04;16.60;99.90
22629;DHT22;11481;53.694;9.910;2023-06-14T04:01:31;16.60;99.90
22629;DHT22;11481;53.694;9.910;2023-06-14T04:04:00;16.60;99.90
22629;DHT22;11481;53.694;9.910;2023-06-14T04:06:27;16.50;99.90
22629;DHT22;11481;53.694;9.910;2023-06-14T04:09:00;16.50;99.90
22629;DHT22;11481;53.694;9.910;2023-06-14T04:11:30;16.50;99.90
22629;DHT22;11481;53.694;9.910;2023-06-14T04:13:58;16.50;99.90
22629;DHT22;11481;53.694;9.910;2023-06-14T04:16:25;16.40;99.90
22629;DHT22;11481;53.694;9.910;2023-06-14T04:18:54;16.50;99.90
22629;DHT22;11481;53.694;9.910;2023-06-14T04:21:21;16.50;99.90
22629;DHT22;11481;53.694;9.910;2023-06-14T04:23:50;16.60;99.90
22629;DHT22;11481;53.694;9.910;2023-06-14T04:26:19;16.50;99.90
22629;DHT22;11481;53.694;9.910;2023-06-14T04:28:52;16.60;99.90
22629;DHT22;11481;53.694;9.910;2023-06-14T04:31:19;16.60;99.90
22629;DHT22;11481;53.694;9.910;2023-06-14T04:33:48;16.70;99.90
22629;DHT22;11481;53.694;9.910;2023-06-14T04:36:17;16.70;99.90
22629;DHT22;11481;53.694;9.910;2023-06-14T04:38:44;16.70;99.90
22629;DHT22;11481;53.694;9.910;2023-06-14T04:41:16;16.70;99.90
22629;DHT22;11481;53.694;9.910;2023-06-14T04:43:43;16.80;99.90
22629;DHT22;11481;53.694;9.910;2023-06-14T04:46:16;16.80;99.90
22629;DHT22;11481;53.694;9.910;2023-06-14T04:48:44;16.80;99.90
22629;DHT22;11481;53.694;9.910;2023-06-14T04:51:12;16.80;99.90
22629;DHT22;11481;53.694;9.910;2023-06-14T04:53:39;16.80;99.90
22629;DHT22;11481;53.694;9.910;2023-06-14T04:56:06;16.80;99.90
22629;DHT22;11481;53.694;9.910;2023-06-14T04:58:33;16.80;99.90
22629;DHT22;11481;53.694;9.910;2023-06-14T05:01:00;16.90;99.90
22629;DHT22;11481;53.694;9.910;2023-06-14T05:03:28;16.90;99.90
22629;DHT22;11481;53.694;9.910;2023-06-14T05:05:57;16.80;99.90
22629;DHT22;11481;53.694;9.910;2023-06-14T05:08:24;16.90;99.90
22629;DHT22;11481;53.694;9.910;2023-06-14T05:10:50;16.90;99.90
22629;DHT22;11481;53.694;9.910;2023-06-14T05:13:18;16.90;99.90
22629;DHT22;11481;53.694;9.910;2023-06-14T05:15:45;16.90;99.90
22629;DHT22;11481;53.694;9.910;2023-06-14T05:18:13;17.00;99.90
22629;DHT22;11481;53.694;9.910;2023-06-14T05:20:40;17.10;99.90
22629;DHT22;11481;53.694;9.910;2023-06-14T05:23:10;17.30;99.90
22629;DHT22;11481;53.694;9.910;2023-06-14T05:25:43;17.30;99.90
22629;DHT22;11481;53.694;9.910;2023-06-14T05:28:10;17.40;99.90
22629;DHT22;11481;53.694;9.910;2023-06-14T05:30:40;17.40;99.90
22629;DHT22;11481;53.694;9.910;2023-06-14T05:33:07;17.50;99.90
22629;DHT22;11481;53.694;9.910;2023-06-14T05:35:34;17.50;99.90
22629;DHT22;11481;53.694;9.910;2023-06-14T05:38:00;17.50;99.90
22629;DHT22;11481;53.694;9.910;2023-06-14T05:40:27;17.60;99.90
22629;DHT22;11481;53.694;9.910;2023-06-14T05:42:56;17.70;99.90
22629;DHT22;11481;53.694;9.910;2023-06-14T05:45:22;17.70;99.90
22629;DHT22;11481;53.694;9.910;2023-06-14T05:47:49;17.70;99.90
22629;DHT22;11481;53.694;9.910;2023-06-14T05:50:18;17.80;99.90
22629;DHT22;11481;53.694;9.910;2023-06-14T05:52:45;17.80;99.90
22629;DHT22;11481;53.694;9.910;2023-06-14T05:55:12;17.90;99.90
22629;DHT22;11481;53.694;9.910;2023-06-14T05:57:40;18.00;99.90
22629;DHT22;11481;53.694;9.910;2023-06-14T06:00:07;18.00;99.90
22629;DHT22;11481;53.694;9.910;2023-06-14T06:02:37;18.10;99.90
22629;DHT22;11481;53.694;9.910;2023-06-14T06:05:05;18.20;99.90
22629;DHT22;11481;53.694;9.910;2023-06-14T06:07:37;18.20;99.90
22629;DHT22;11481;53.694;9.910;2023-06-14T06:10:07;18.40;99.90
22629;DHT22;11481;53.694;9.910;2023-06-14T06:12:34;18.40;99.90
22629;DHT22;11481;53.694;9.910;2023-06-14T06:15:02;18.50;99.90
22629;DHT22;11481;53.694;9.910;2023-06-14T06:17:30;18.60;99.90
22629;DHT22;11481;53.694;9.910;2023-06-14T06:20:16;18.60;99.90
22629;DHT22;11481;53.694;9.910;2023-06-14T06:22:43;18.80;99.90
22629;DHT22;11481;53.694;9.910;2023-06-14T06:25:10;18.90;99.90
22629;DHT22;11481;53.694;9.910;2023-06-14T06:27:37;18.90;99.90
22629;DHT22;11481;53.694;9.910;2023-06-14T06:30:04;18.90;99.90
22629;DHT22;11481;53.694;9.910;2023-06-14T06:32:32;19.00;99.90
22629;DHT22;11481;53.694;9.910;2023-06-14T06:34:58;19.10;99.90
22629;DHT22;11481;53.694;9.910;2023-06-14T06:37:28;19.40;99.90
22629;DHT22;11481;53.694;9.910;2023-06-14T06:39:55;19.30;99.90
22629;DHT22;11481;53.694;9.910;2023-06-14T06:42:21;19.40;99.90
22629;DHT22;11481;53.694;9.910;2023-06-14T06:44:48;19.50;99.90
22629;DHT22;11481;53.694;9.910;2023-06-14T06:47:15;19.40;99.90
22629;DHT22;11481;53.694;9.910;2023-06-14T06:49:42;19.50;99.90
22629;DHT22;11481;53.694;9.910;2023-06-14T06:52:08;19.60;99.90
22629;DHT22;11481;53.694;9.910;2023-06-14T06:54:36;19.70;99.90
22629;DHT22;11481;53.694;9.910;2023-06-14T06:57:03;20.00;99.90
22629;DHT22;11481;53.694;9.910;2023-06-14T06:59:30;19.90;99.90
22629;DHT22;11481;53.694;9.910;2023-06-14T07:01:57;20.00;99.90
22629;DHT22;11481;53.694;9.910;2023-06-14T07:04:23;20.00;99.90
22629;DHT22;11481;53.694;9.910;2023-06-14T07:06:50;20.00;99.90
22629;DHT22;11481;53.694;9.910;2023-06-14T07:09:19;20.10;99.90
22629;DHT22;11481;53.694;9.910;2023-06-14T07:11:47;20.20;99.90
22629;DHT22;11481;53.694;9.910;2023-06-14T07:14:16;20.20;99.90
22629;DHT22;11481;53.694;9.910;2023-06-14T07:16:42;20.30;99.90
22629;DHT22;11481;53.694;9.910;2023-06-14T07:19:10;20.40;99.90
22629;DHT22;11481;53.694;9.910;2023-06-14T07:21:37;20.50;99.90
22629;DHT22;11481;53.694;9.910;2023-06-14T07:24:06;20.50;99.90
22629;DHT22;11481;53.694;9.910;2023-06-14T07:26:34;20.50;99.90
22629;DHT22;11481;53.694;9.910;2023-06-14T07:29:02;20.70;99.90
22629;DHT22;11481;53.694;9.910;2023-06-14T07:31:30;20.80;99.90
22629;DHT22;11481;53.694;9.910;2023-06-14T07:33:57;20.80;99.90
22629;DHT22;11481;53.694;9.910;2023-06-14T07:36:24;20.90;99.90
22629;DHT22;11481;53.694;9.910;2023-06-14T07:38:53;21.00;99.90
22629;DHT22;11481;53.694;9.910;2023-06-14T07:41:19;21.00;99.90
22629;DHT22;11481;53.694;9.910;2023-06-14T07:43:46;21.10;99.90
22629;DHT22;11481;53.694;9.910;2023-06-14T07:46:14;21.20;99.90
22629;DHT22;11481;53.694;9.910;2023-06-14T07:48:41;21.20;99.90
22629;DHT22;11481;53.694;9.910;2023-06-14T07:51:08;21.30;99.90
22629;DHT22;11481;53.694;9.910;2023-06-14T07:53:35;21.40;99.90
22629;DHT22;11481;53.694;9.910;2023-06-14T07:56:01;21.40;99.90
22629;DHT22;11481;53.694;9.910;2023-06-14T07:58:29;21.60;99.90
22629;DHT22;11481;53.694;9.910;2023-06-14T08:00:57;21.70;99.90
22629;DHT22;11481;53.694;9.910;2023-06-14T08:03:24;21.90;99.90
22629;DHT22;11481;53.694;9.910;2023-06-14T08:05:52;21.90;99.90
22629;DHT22;11481;53.694;9.910;2023-06-14T08:08:18;21.90;99.90
22629;DHT22;11481;53.694;9.910;2023-06-14T08:10:45;21.90;99.90
22629;DHT22;11481;53.694;9.910;2023-06-14T08:13:14;22.10;99.90
22629;DHT22;11481;53.694;9.910;2023-06-14T08:15:43;22.20;99.90
22629;DHT22;11481;53.694;9.910;2023-06-14T08:18:12;22.20;99.90
22629;DHT22;11481;53.694;9.910;2023-06-14T08:20:39;22.30;99.90
22629;DHT22;11481;53.694;9.910;2023-06-14T08:23:06;22.40;99.90
22629;DHT22;11481;53.694;9.910;2023-06-14T08:25:35;22.40;99.90
22629;DHT22;11481;53.694;9.910;2023-06-14T08:28:02;22.40;99.90
22629;DHT22;11481;53.694;9.910;2023-06-14T08:30:28;22.40;99.90
22629;DHT22;11481;53.694;9.910;2023-06-14T08:32:58;22.60;99.90
22629;DHT22;11481;53.694;9.910;2023-06-14T08:35:41;22.70;99.90
22629;DHT22;11481;53.694;9.910;2023-06-14T08:38:10;22.70;99.90
22629;DHT22;11481;53.694;9.910;2023-06-14T08:40:40;22.70;99.90
22629;DHT22;11481;53.694;9.910;2023-06-14T08:43:08;22.70;99.90
22629;DHT22;11481;53.694;9.910;2023-06-14T08:45:37;22.80;99.90
22629;DHT22;11481;53.694;9.910;2023-06-14T08:48:04;22.90;99.90
22629;DHT22;11481;53.694;9.910;2023-06-14T08:50:32;23.00;99.90
22629;DHT22;11481;53.694;9.910;2023-06-14T08:53:04;23.00;99.90
22629;DHT22;11481;53.694;9.910;2023-06-14T08:55:32;23.10;99.90
22629;DHT22;11481;53.694;9.910;2023-06-14T08:58:08;23.20;99.90
22629;DHT22;11481;53.694;9.910;2023-06-14T09:00:35;23.20;99.90
22629;DHT22;11481;53.694;9.910;2023-06-14T09:03:05;23.40;99.90
22629;DHT22;11481;53.694;9.910;2023-06-14T09:05:34;23.40;99.90
22629;DHT22;11481;53.694;9.910;2023-06-14T09:08:00;23.50;99.90
22629;DHT22;11481;53.694;9.910;2023-06-14T09:10:32;23.60;99.90
22629;DHT22;11481;53.694;9.910;2023-06-14T09:13:05;23.70;99.90
22629;DHT22;11481;53.694;9.910;2023-06-14T09:15:31;23.80;99.90
22629;DHT22;11481;53.694;9.910;2023-06-14T09:18:01;23.90;99.90
22629;DHT22;11481;53.694;9.910;2023-06-14T09:20:29;23.90;99.90
22629;DHT22;11481;53.694;9.910;2023-06-14T09:22:56;24.00;99.90
22629;DHT22;11481;53.694;9.910;2023-06-14T09:25:23;24.00;99.90
22629;DHT22;11481;53.694;9.910;2023-06-14T09:28:07;24.00;99.90
22629;DHT22;11481;53.694;9.910;2023-06-14T09:30:36;23.90;99.90
22629;DHT22;11481;53.694;9.910;2023-06-14T09:33:03;23.90;99.90
22629;DHT22;11481;53.694;9.910;2023-06-14T09:35:34;24.10;99.90
22629;DHT22;11481;53.694;9.910;2023-06-14T09:38:01;24.20;99.90
22629;DHT22;11481;53.694;9.910;2023-06-14T09:40:34;24.40;99.90
22629;DHT22;11481;53.694;9.910;2023-06-14T09:43:07;24.40;99.90
22629;DHT22;11481;53.694;9.910;2023-06-14T09:45:38;24.50;99.90
22629;DHT22;11481;53.694;9.910;2023-06-14T09:48:07;24.50;99.90
22629;DHT22;11481;53.694;9.910;2023-06-14T09:50:35;24.50;99.90
22629;DHT22;11481;53.694;9.910;2023-06-14T09:53:06;24.30;99.90
22629;DHT22;11481;53.694;9.910;2023-06-14T09:55:37;24.30;99.90
22629;DHT22;11481;53.694;9.910;2023-06-14T09:58:09;24.40;99.90
22629;DHT22;11481;53.694;9.910;2023-06-14T10:00:39;24.80;99.90
22629;DHT22;11481;53.694;9.910;2023-06-14T10:03:16;24.70;99.90
22629;DHT22;11481;53.694;9.910;2023-06-14T10:05:47;24.60;99.90
22629;DHT22;11481;53.694;9.910;2023-06-14T10:08:18;24.60;99.90
22629;DHT22;11481;53.694;9.910;2023-06-14T10:10:46;24.90;99.90
22629;DHT22;11481;53.694;9.910;2023-06-14T10:13:13;24.90;99.90
22629;DHT22;11481;53.694;9.910;2023-06-14T10:21:25;25.60;99.90
22629;DHT22;11481;53.694;9.910;2023-06-14T10:23:56;25.80;99.90
22629;DHT22;11481;53.694;9.910;2023-06-14T10:26:26;25.70;99.90
22629;DHT22;11481;53.694;9.910;2023-06-14T10:29:00;25.60;99.90
22629;DHT22;11481;53.694;9.910;2023-06-14T10:31:55;25.30;99.90
22629;DHT22;11481;53.694;9.910;2023-06-14T10:34:26;25.30;99.90
22629;DHT22;11481;53.694;9.910;2023-06-14T10:37:04;25.40;99.90
22629;DHT22;11481;53.694;9.910;2023-06-14T10:39:42;25.60;99.90
22629;DHT22;11481;53.694;9.910;2023-06-14T10:42:10;25.90;99.90
22629;DHT22;11481;53.694;9.910;2023-06-14T10:44:41;26.00;99.90
22629;DHT22;11481;53.694;9.910;2023-06-14T10:47:10;26.00;99.90
22629;DHT22;11481;53.694;9.910;2023-06-14T10:49:41;25.80;99.90
22629;DHT22;11481;53.694;9.910;2023-06-14T10:52:13;25.70;99.90
22629;DHT22;11481;53.694;9.910;2023-06-14T10:57:47;25.60;99.90
22629;DHT22;11481;53.694;9.910;2023-06-14T11:00:21;25.80;99.90
22629;DHT22;11481;53.694;9.910;2023-06-14T11:06:00;25.80;99.90
22629;DHT22;11481;53.694;9.910;2023-06-14T11:09:09;26.00;99.90
22629;DHT22;11481;53.694;9.910;2023-06-14T11:11:42;26.20;99.90
22629;DHT22;11481;53.694;9.910;2023-06-14T11:14:10;26.10;99.90
22629;DHT22;11481;53.694;9.910;2023-06-14T11:16:37;25.90;99.90
22629;DHT22;11481;53.694;9.910;2023-06-14T11:19:03;25.30;99.90
22629;DHT22;11481;53.694;9.910;2023-06-14T11:21:32;25.00;99.90
22629;DHT22;11481;53.694;9.910;2023-06-14T11:23:59;25.40;99.90
22629;DHT22;11481;53.694;9.910;2023-06-14T11:26:30;25.90;99.90
22629;DHT22;11481;53.694;9.910;2023-06-14T11:28:58;26.20;99.90
22629;DHT22;11481;53.694;9.910;2023-06-14T11:31:28;26.50;99.90
22629;DHT22;11481;53.694;9.910;2023-06-14T11:33:58;26.50;99.90
22629;DHT22;11481;53.694;9.910;2023-06-14T11:36:28;26.70;99.90
22629;DHT22;11481;53.694;9.910;2023-06-14T11:39:01;26.90;99.90
22629;DHT22;11481;53.694;9.910;2023-06-14T11:41:41;26.90;99.90
22629;DHT22;11481;53.694;9.910;2023-06-14T11:44:09;27.00;99.90
22629;DHT22;11481;53.694;9.910;2023-06-14T11:46:35;26.80;99.90
22629;DHT22;11481;53.694;9.910;2023-06-14T11:49:03;26.80;99.90
22629;DHT22;11481;53.694;9.910;2023-06-14T11:51:33;26.60;99.90
22629;DHT22;11481;53.694;9.910;2023-06-14T11:54:02;26.60;99.90
22629;DHT22;11481;53.694;9.910;2023-06-14T11:56:33;26.70;99.90
22629;DHT22;11481;53.694;9.910;2023-06-14T11:59:03;26.80;99.90
22629;DHT22;11481;53.694;9.910;2023-06-14T12:01:32;26.50;99.90
22629;DHT22;11481;53.694;9.910;2023-06-14T12:03:59;26.20;99.90
22629;DHT22;11481;53.694;9.910;2023-06-14T12:06:28;26.60;99.90
22629;DHT22;11481;53.694;9.910;2023-06-14T12:08:56;26.90;99.90
22629;DHT22;11481;53.694;9.910;2023-06-14T12:11:23;27.10;99.90
22629;DHT22;11481;53.694;9.910;2023-06-14T12:13:50;27.40;99.90
22629;DHT22;11481;53.694;9.910;2023-06-14T12:16:18;27.20;99.90
22629;DHT22;11481;53.694;9.910;2023-06-14T12:18:45;27.10;99.90
22629;DHT22;11481;53.694;9.910;2023-06-14T12:21:13;26.60;99.90
22629;DHT22;11481;53.694;9.910;2023-06-14T12:23:49;26.60;99.90
22629;DHT22;11481;53.694;9.910;2023-06-14T12:26:18;26.80;99.90
22629;DHT22;11481;53.694;9.910;2023-06-14T12:28:46;26.90;99.90
22629;DHT22;11481;53.694;9.910;2023-06-14T12:31:15;27.10;99.90
22629;DHT22;11481;53.694;9.910;2023-06-14T12:33:44;27.40;99.90
22629;DHT22;11481;53.694;9.910;2023-06-14T12:36:16;27.60;99.90
22629;DHT22;11481;53.694;9.910;2023-06-14T12:38:46;27.80;99.90
22629;DHT22;11481;53.694;9.910;2023-06-14T12:41:16;27.70;99.90
22629;DHT22;11481;53.694;9.910;2023-06-14T12:43:43;27.30;99.90
22629;DHT22;11481;53.694;9.910;2023-06-14T12:46:09;27.00;99.90
22629;DHT22;11481;53.694;9.910;2023-06-14T12:48:37;27.10;99.90
22629;DHT22;11481;53.694;9.910;2023-06-14T12:51:04;27.30;99.90
22629;DHT22;11481;53.694;9.910;2023-06-14T12:53:30;27.40;99.90
22629;DHT22;11481;53.694;9.910;2023-06-14T12:55:57;27.40;99.90
22629;DHT22;11481;53.694;9.910;2023-06-14T12:58:24;27.10;99.90
22629;DHT22;11481;53.694;9.910;2023-06-14T13:00:52;27.20;99.90
22629;DHT22;11481;53.694;9.910;2023-06-14T13:03:19;27.40;99.90
22629;DHT22;11481;53.694;9.910;2023-06-14T13:05:46;27.30;99.90
22629;DHT22;11481;53.694;9.910;2023-06-14T13:08:12;26.60;99.90
22629;DHT22;11481;53.694;9.910;2023-06-14T13:10:41;26.50;99.90
22629;DHT22;11481;53.694;9.910;2023-06-14T13:13:08;26.60;99.90
22629;DHT22;11481;53.694;9.910;2023-06-14T13:15:35;27.00;99.90
22629;DHT22;11481;53.694;9.910;2023-06-14T13:18:02;27.20;99.90
22629;DHT22;11481;53.694;9.910;2023-06-14T13:20:30;27.40;99.90
22629;DHT22;11481;53.694;9.910;2023-06-14T13:22:57;27.30;99.90
22629;DHT22;11481;53.694;9.910;2023-06-14T13:25:25;27.20;99.90
22629;DHT22;11481;53.694;9.910;2023-06-14T13:27:52;27.20;99.90
22629;DHT22;11481;53.694;9.910;2023-06-14T13:30:18;27.00;99.90
22629;DHT22;11481;53.694;9.910;2023-06-14T13:32:45;26.80;99.90
22629;DHT22;11481;53.694;9.910;2023-06-14T13:35:16;26.70;99.90
22629;DHT22;11481;53.694;9.910;2023-06-14T13:37:42;26.60;99.90
22629;DHT22;11481;53.694;9.910;2023-06-14T13:40:09;26.80;99.90
22629;DHT22;11481;53.694;9.910;2023-06-14T13:42:40;26.90;99.90
22629;DHT22;11481;53.694;9.910;2023-06-14T13:45:07;27.40;99.90
22629;DHT22;11481;53.694;9.910;2023-06-14T13:47:36;27.60;99.90
22629;DHT22;11481;53.694;9.910;2023-06-14T13:50:04;27.70;99.90
22629;DHT22;11481;53.694;9.910;2023-06-14T13:52:55;27.90;99.90
22629;DHT22;11481;53.694;9.910;2023-06-14T13:55:22;28.30;99.90
22629;DHT22;11481;53.694;9.910;2023-06-14T13:57:49;28.60;99.90
22629;DHT22;11481;53.694;9.910;2023-06-14T14:00:17;28.80;99.90
22629;DHT22;11481;53.694;9.910;2023-06-14T14:02:48;29.00;99.90
22629;DHT22;11481;53.694;9.910;2023-06-14T14:05:17;28.90;99.90
22629;DHT22;11481;53.694;9.910;2023-06-14T14:07:44;28.70;99.90
22629;DHT22;11481;53.694;9.910;2023-06-14T14:10:13;28.40;99.90
22629;DHT22;11481;53.694;9.910;2023-06-14T14:12:40;28.70;99.90
22629;DHT22;11481;53.694;9.910;2023-06-14T14:15:09;28.40;99.90
22629;DHT22;11481;53.694;9.910;2023-06-14T14:17:40;28.10;99.90
22629;DHT22;11481;53.694;9.910;2023-06-14T14:20:07;28.40;99.90
22629;DHT22;11481;53.694;9.910;2023-06-14T14:22:36;28.70;99.90
22629;DHT22;11481;53.694;9.910;2023-06-14T14:25:04;29.10;99.90
22629;DHT22;11481;53.694;9.910;2023-06-14T14:27:31;29.10;99.90
22629;DHT22;11481;53.694;9.910;2023-06-14T14:29:59;29.30;99.90
22629;DHT22;11481;53.694;9.910;2023-06-14T14:32:25;29.20;99.90
22629;DHT22;11481;53.694;9.910;2023-06-14T14:34:52;29.50;99.90
22629;DHT22;11481;53.694;9.910;2023-06-14T14:37:19;28.50;99.90
22629;DHT22;11481;53.694;9.910;2023-06-14T14:39:47;28.50;99.90
22629;DHT22;11481;53.694;9.910;2023-06-14T14:42:14;28.90;99.90
22629;DHT22;11481;53.694;9.910;2023-06-14T14:44:41;29.10;99.90
22629;DHT22;11481;53.694;9.910;2023-06-14T14:47:07;29.60;99.90
22629;DHT22;11481;53.694;9.910;2023-06-14T14:49:34;29.40;99.90
22629;DHT22;11481;53.694;9.910;2023-06-14T14:52:01;29.50;99.90
22629;DHT22;11481;53.694;9.910;2023-06-14T14:54:48;29.90;99.90
22629;DHT22;11481;53.694;9.910;2023-06-14T14:57:15;30.10;99.90
22629;DHT22;11481;53.694;9.910;2023-06-14T14:59:42;30.20;99.90
22629;DHT22;11481;53.694;9.910;2023-06-14T15:02:10;30.40;99.90
22629;DHT22;11481;53.694;9.910;2023-06-14T15:04:38;30.60;99.80
22629;DHT22;11481;53.694;9.910;2023-06-14T15:07:05;30.50;99.30
22629;DHT22;11481;53.694;9.910;2023-06-14T15:09:32;30.30;98.20
22629;DHT22;11481;53.694;9.910;2023-06-14T15:11:59;30.20;99.50
22629;DHT22;11481;53.694;9.910;2023-06-14T15:14:28;30.40;97.90
22629;DHT22;11481;53.694;9.910;2023-06-14T15:16:55;30.40;98.30
22629;DHT22;11481;53.694;9.910;2023-06-14T15:19:21;30.30;97.60
22629;DHT22;11481;53.694;9.910;2023-06-14T15:21:48;30.40;97.60
22629;DHT22;11481;53.694;9.910;2023-06-14T15:24:15;30.40;96.80
22629;DHT22;11481;53.694;9.910;2023-06-14T15:26:52;30.10;97.70
22629;DHT22;11481;53.694;9.910;2023-06-14T15:29:19;30.20;97.20
22629;DHT22;11481;53.694;9.910;2023-06-14T15:31:45;30.50;96.90
22629;DHT22;11481;53.694;9.910;2023-06-14T15:34:14;30.50;96.50
22629;DHT22;11481;53.694;9.910;2023-06-14T15:36:41;30.50;97.20
22629;DHT22;11481;53.694;9.910;2023-06-14T15:39:07;30.30;96.20
22629;DHT22;11481;53.694;9.910;2023-06-14T15:41:34;30.20;96.10
22629;DHT22;11481;53.694;9.910;2023-06-14T15:44:01;29.50;96.10
22629;DHT22;11481;53.694;9.910;2023-06-14T15:46:27;29.90;95.80
22629;DHT22;11481;53.694;9.910;2023-06-14T15:48:54;29.30;95.80
22629;DHT22;11481;53.694;9.910;2023-06-14T15:51:21;29.30;96.80
22629;DHT22;11481;53.694;9.910;2023-06-14T15:53:48;29.80;97.40
22629;DHT22;11481;53.694;9.910;2023-06-14T15:56:14;30.30;96.20
22629;DHT22;11481;53.694;9.910;2023-06-14T15:58:41;30.60;96.50